createdAt,value
2023-02-13T00:02:26.619Z,10.20
2023-02-13T00:05:31.211Z,9.90
2023-02-13T00:08:34.384Z,8.80
2023-02-13T00:14:41.751Z,10.70
2023-02-13T00:17:44.822Z,10.70
2023-02-13T00:21:02.422Z,11.70
2023-02-13T00:24:06.667Z,10.70
2023-02-13T00:27:09.616Z,10.70
2023-02-13T00:30:14.366Z,10.50
2023-02-13T00:33:17.437Z,10.70
2023-02-13T00:36:24.510Z,10.70
2023-02-13T00:39:27.723Z,10.70
2023-02-13T00:42:30.904Z,10.70
2023-02-13T00:45:33.891Z,10.80
2023-02-13T00:48:38.150Z,10.80
2023-02-13T00:51:42.749Z,10.70
2023-02-13T00:54:47.233Z,10.70
2023-02-13T00:57:50.308Z,11.20
2023-02-13T01:00:54.874Z,10.80
2023-02-13T01:03:58.243Z,11.50
2023-02-13T01:07:02.716Z,10.80
2023-02-13T01:10:07.161Z,10.80
2023-02-13T01:13:11.283Z,11.50
2023-02-13T01:16:15.859Z,11.80
2023-02-13T01:19:19.732Z,10.80
2023-02-13T01:22:24.302Z,12.40
2023-02-13T01:25:28.226Z,10.80
2023-02-13T01:28:31.351Z,10.80
2023-02-13T01:31:34.970Z,10.70
2023-02-13T01:34:38.185Z,10.80
2023-02-13T01:37:43.376Z,10.80
2023-02-13T01:40:48.163Z,10.80
2023-02-13T01:43:55.240Z,10.70
2023-02-13T01:46:58.274Z,10.80
2023-02-13T01:50:11.014Z,10.70
2023-02-13T01:53:22.496Z,12.00
2023-02-13T01:56:30.625Z,10.60
2023-02-13T01:59:41.829Z,11.70
2023-02-13T02:02:50.887Z,11.20
2023-02-13T02:05:57.911Z,10.60
2023-02-13T02:09:09.282Z,10.50
2023-02-13T02:12:24.341Z,10.60
2023-02-13T02:15:27.708Z,10.50
2023-02-13T02:18:31.309Z,10.50
2023-02-13T02:22:26.580Z,10.50
2023-02-13T02:26:00.131Z,10.40
2023-02-13T02:29:32.653Z,10.40
2023-02-13T02:32:56.720Z,10.40
2023-02-13T02:36:22.829Z,10.40
2023-02-13T02:39:40.534Z,10.40
2023-02-13T02:43:05.909Z,10.40
2023-02-13T02:46:24.189Z,10.30
2023-02-13T02:49:47.718Z,10.30
2023-02-13T02:53:09.758Z,10.20
2023-02-13T02:56:23.209Z,10.20
2023-02-13T02:59:47.790Z,10.20
2023-02-13T03:03:08.574Z,10.20
2023-02-13T03:06:19.611Z,10.20
2023-02-13T03:09:47.557Z,9.20
2023-02-13T03:13:14.103Z,10.20
2023-02-13T03:16:37.139Z,10.20
2023-02-13T03:20:22.360Z,10.10
2023-02-13T03:23:42.227Z,10.00
2023-02-13T03:26:58.937Z,10.00
2023-02-13T03:30:16.389Z,9.20
2023-02-13T03:33:36.134Z,9.90
2023-02-13T03:37:06.923Z,11.70
2023-02-13T03:40:16.965Z,9.80
2023-02-13T03:43:21.261Z,10.10
2023-02-13T03:46:27.277Z,9.80
2023-02-13T03:49:54.760Z,9.80
2023-02-13T03:53:04.839Z,9.70
2023-02-13T03:56:31.441Z,9.70
2023-02-13T03:59:38.024Z,9.70
2023-02-13T04:02:54.894Z,9.70
2023-02-13T04:06:09.550Z,9.60
2023-02-13T04:09:12.755Z,9.60
2023-02-13T04:12:23.508Z,10.90
2023-02-13T04:15:33.607Z,9.60
2023-02-13T04:18:39.040Z,9.60
2023-02-13T04:21:42.217Z,9.60
2023-02-13T04:24:45.390Z,9.60
2023-02-13T04:27:49.829Z,8.20
2023-02-13T04:30:52.873Z,9.60
2023-02-13T04:33:56.002Z,9.60
2023-02-13T04:36:58.985Z,10.10
2023-02-13T04:40:03.203Z,9.70
2023-02-13T04:43:07.612Z,10.80
2023-02-13T04:46:10.707Z,9.70
2023-02-13T04:49:14.319Z,8.60
2023-02-13T04:52:17.284Z,9.80
2023-02-13T04:55:20.301Z,9.80
2023-02-13T04:58:24.830Z,9.90
2023-02-13T05:01:27.966Z,9.90
2023-02-13T05:04:31.152Z,9.90
2023-02-13T05:07:34.176Z,9.90
2023-02-13T05:10:37.783Z,9.90
2023-02-13T05:13:42.242Z,10.00
2023-02-13T05:16:45.766Z,9.20
2023-02-13T05:19:48.825Z,9.80
2023-02-13T05:23:12.086Z,10.00
2023-02-13T05:26:15.267Z,10.00
2023-02-13T05:29:19.839Z,11.00
2023-02-13T05:32:22.866Z,10.00
2023-02-13T05:35:25.897Z,10.10
2023-02-13T05:38:28.956Z,10.10
2023-02-13T05:41:31.957Z,10.10
2023-02-13T05:44:36.333Z,10.40
2023-02-13T05:47:39.543Z,10.10
2023-02-13T05:50:42.562Z,10.20
2023-02-13T05:53:45.542Z,10.10
2023-02-13T05:56:48.540Z,10.40
2023-02-13T05:59:52.944Z,10.20
2023-02-13T06:02:55.971Z,9.30
2023-02-13T06:05:59.614Z,10.20
2023-02-13T06:09:02.696Z,11.50
2023-02-13T06:12:06.966Z,10.20
2023-02-13T06:15:11.521Z,10.20
2023-02-13T06:18:14.736Z,10.30
2023-02-13T06:21:17.710Z,10.30
2023-02-13T06:24:20.703Z,10.30
2023-02-13T06:27:23.713Z,10.30
2023-02-13T06:30:28.347Z,10.30
2023-02-13T06:33:31.464Z,10.60
2023-02-13T06:36:34.978Z,10.30
2023-02-13T06:39:38.049Z,10.40
2023-02-13T06:42:42.551Z,10.30
2023-02-13T06:45:47.885Z,10.30
2023-02-13T06:48:50.848Z,10.30
2023-02-13T06:51:53.927Z,10.30
2023-02-13T06:54:56.946Z,10.30
2023-02-13T06:58:00.288Z,10.30
2023-02-13T07:01:04.825Z,10.30
2023-02-13T07:04:07.923Z,10.30
2023-02-13T07:07:11.171Z,10.30
2023-02-13T07:10:15.555Z,10.30
2023-02-13T07:13:18.540Z,10.30
2023-02-13T07:16:23.250Z,11.90
2023-02-13T07:19:26.438Z,10.30
2023-02-13T07:22:29.499Z,10.30
2023-02-13T07:25:33.157Z,10.30
2023-02-13T07:28:36.407Z,10.30
2023-02-13T07:31:41.062Z,10.30
2023-02-13T07:34:59.596Z,10.40
2023-02-13T07:38:04.563Z,10.40
2023-02-13T07:41:07.974Z,11.30
2023-02-13T07:44:11.367Z,10.40
2023-02-13T07:47:18.895Z,10.40
2023-02-13T07:50:22.993Z,9.60
2023-02-13T07:53:25.944Z,10.50
2023-02-13T07:56:29.217Z,12.30
2023-02-13T07:59:32.312Z,10.80
2023-02-13T08:02:36.640Z,10.50
2023-02-13T08:05:40.718Z,12.50
2023-02-13T08:11:55.060Z,10.80
2023-02-13T08:14:58.050Z,10.70
2023-02-13T08:18:02.587Z,10.60
2023-02-13T08:21:06.049Z,10.70
2023-02-13T08:24:09.418Z,10.60
2023-02-13T08:27:14.785Z,10.60
2023-02-13T08:51:45.745Z,10.80
2023-02-13T08:54:48.819Z,10.80
2023-02-13T09:13:13.246Z,11.30
2023-02-13T09:19:21.435Z,11.20
2023-02-13T09:22:24.524Z,11.20
2023-02-13T09:25:27.615Z,12.00
2023-02-13T09:28:32.686Z,11.30
2023-02-13T10:06:33.478Z,12.00
2023-02-13T10:09:49.207Z,12.00
2023-02-13T10:13:06.121Z,11.90
2023-02-13T10:16:15.395Z,11.90
2023-02-13T10:19:36.054Z,12.20
2023-02-13T11:33:05.662Z,12.70
2023-02-13T11:36:15.341Z,11.30
2023-02-13T11:39:22.094Z,12.50
2023-02-13T11:42:31.537Z,12.50
2023-02-13T11:45:35.344Z,12.50
2023-02-13T11:48:38.614Z,12.50
2023-02-13T11:51:45.905Z,12.50
2023-02-13T11:54:59.379Z,12.50
2023-02-13T11:58:22.558Z,12.50
2023-02-13T12:10:39.770Z,12.80
2023-02-13T12:13:46.113Z,12.70
2023-02-13T12:19:56.895Z,13.60
2023-02-13T12:23:08.498Z,12.70
2023-02-13T12:26:36.333Z,10.60
2023-02-13T12:30:06.692Z,12.60
2023-02-13T12:39:35.911Z,12.70
2023-02-13T12:42:51.199Z,13.40
2023-02-13T12:46:03.756Z,12.60
2023-02-13T12:49:29.656Z,12.90
2023-02-13T12:52:48.126Z,12.70
2023-02-13T12:56:23.693Z,12.70
2023-02-13T12:59:42.003Z,12.70
2023-02-13T13:03:12.154Z,12.90
2023-02-13T13:06:34.786Z,12.70
2023-02-13T13:10:12.225Z,11.10
2023-02-13T13:13:29.910Z,12.70
2023-02-13T13:16:48.389Z,12.70
2023-02-13T13:20:04.949Z,12.70
2023-02-13T13:23:17.278Z,12.60
2023-02-13T13:26:32.080Z,12.60
2023-02-13T13:29:45.379Z,12.60
2023-02-13T13:32:55.723Z,12.80
2023-02-13T13:36:13.030Z,12.50
2023-02-13T13:39:36.931Z,12.50
2023-02-13T13:46:03.885Z,14.30
2023-02-13T13:49:38.410Z,12.50
2023-02-13T13:56:10.258Z,10.70
2023-02-13T13:59:19.212Z,12.50
2023-02-13T14:02:43.467Z,12.40
2023-02-13T14:09:28.763Z,10.10
2023-02-13T14:12:46.468Z,12.50
2023-02-13T14:15:55.054Z,12.30
2023-02-13T14:25:33.306Z,16.90
2023-02-13T14:28:36.718Z,12.20
2023-02-13T14:31:44.053Z,12.00
2023-02-13T14:34:57.462Z,11.90
2023-02-13T14:41:07.918Z,10.00
2023-02-13T14:44:20.596Z,11.00
2023-02-13T14:47:30.744Z,12.00
2023-02-13T14:50:46.870Z,11.90
2023-02-13T14:57:10.956Z,11.80
2023-02-13T15:06:42.599Z,11.90
2023-02-13T15:09:52.705Z,11.90
2023-02-13T15:13:02.712Z,11.30
2023-02-13T15:22:31.600Z,14.20
2023-02-13T15:31:46.134Z,11.70
2023-02-13T15:50:30.740Z,11.60
2023-02-13T16:05:52.559Z,11.60
2023-02-13T16:30:59.790Z,11.60
2023-02-13T16:53:04.356Z,11.50
2023-02-13T16:56:11.787Z,11.40
2023-02-13T16:59:27.298Z,11.30
2023-02-13T17:24:08.148Z,8.40
2023-02-13T17:27:12.664Z,11.20
2023-02-13T18:01:01.796Z,10.90
2023-02-13T18:10:19.887Z,10.80
2023-02-13T18:25:38.376Z,10.80
2023-02-13T19:45:36.637Z,14.40
2023-02-13T19:48:40.139Z,10.50
2023-02-13T19:51:46.614Z,10.30
2023-02-13T19:54:49.816Z,11.20
2023-02-13T20:07:05.993Z,10.50
2023-02-13T20:10:10.639Z,7.90
2023-02-13T20:13:13.740Z,12.20
2023-02-13T20:16:18.435Z,10.30
2023-02-13T20:19:22.032Z,10.40
2023-02-13T20:38:04.627Z,10.30
2023-02-13T21:39:34.416Z,10.30
2023-02-13T21:42:39.533Z,10.30
2023-02-13T21:45:42.574Z,11.80
2023-02-13T21:48:47.383Z,10.20
2023-02-13T21:51:50.393Z,9.60
2023-02-13T21:54:54.876Z,11.60
2023-02-13T21:57:57.908Z,10.20
2023-02-13T22:01:01.510Z,10.20
2023-02-13T22:04:08.024Z,10.20
2023-02-13T22:07:11.137Z,10.20
2023-02-13T22:10:15.687Z,10.20
2023-02-13T22:13:19.727Z,9.00
2023-02-13T22:16:22.938Z,10.30
2023-02-13T22:19:26.077Z,10.30
2023-02-13T22:22:28.988Z,11.70
2023-02-13T22:25:33.422Z,10.30
2023-02-13T22:28:36.481Z,10.30
2023-02-13T22:31:40.666Z,10.30
2023-02-13T22:53:05.639Z,12.00
2023-02-13T22:56:11.489Z,9.60
2023-02-13T22:59:14.977Z,10.30
2023-02-13T23:02:18.365Z,9.60
2023-02-13T23:05:21.472Z,10.20
2023-02-13T23:08:24.522Z,10.20
2023-02-13T23:11:47.335Z,8.60
2023-02-13T23:14:50.295Z,10.10
2023-02-13T23:18:10.911Z,10.10
2023-02-13T23:21:14.947Z,9.80
2023-02-13T23:24:18.907Z,10.10
2023-02-13T23:27:23.262Z,10.10
2023-02-13T23:30:28.369Z,10.10
2023-02-13T23:33:32.015Z,10.00
2023-02-13T23:36:35.394Z,10.00
2023-02-13T23:39:38.427Z,10.00
2023-02-13T23:42:43.592Z,9.90
2023-02-13T23:45:46.696Z,9.70
2023-02-13T23:48:49.687Z,9.90
2023-02-13T23:51:52.717Z,9.90
2023-02-13T23:54:55.749Z,10.30
2023-02-13T23:58:00.114Z,8.20
